createdAt,value
2017-07-04T00:00:24.213Z,33.4
2017-07-04T00:01:26.055Z,33.4
2017-07-04T00:02:27.511Z,33.4
2017-07-04T00:03:27.822Z,33.4
2017-07-04T00:04:26.165Z,33.4
2017-07-04T00:05:24.371Z,33.4
2017-07-04T00:06:25.029Z,33.4
2017-07-04T00:07:27.711Z,33.4
2017-07-04T00:08:24.408Z,33.4
2017-07-04T00:09:26.732Z,33.4
2017-07-04T00:10:26.380Z,33.4
2017-07-04T00:11:24.570Z,33.4
2017-07-04T00:12:27.932Z,33.4
2017-07-04T00:13:27.890Z,33.4
2017-07-04T00:14:24.696Z,33.4
2017-07-04T00:15:25.016Z,33.4
2017-07-04T00:16:24.711Z,33.4
2017-07-04T00:17:28.103Z,33.4
2017-07-04T00:18:28.112Z,33.4
2017-07-04T00:19:24.884Z,33.4
2017-07-04T00:20:26.929Z,33.4
2017-07-04T00:21:25.418Z,33.4
2017-07-04T00:22:27.032Z,33.4
2017-07-04T00:23:25.044Z,33.4
2017-07-04T00:24:28.410Z,33.4
2017-07-04T00:25:31.552Z,33.4
2017-07-04T00:26:25.253Z,33.4
2017-07-04T00:27:25.463Z,33.4
2017-07-04T00:28:28.673Z,33.4
2017-07-04T00:29:28.606Z,33.4
2017-07-04T00:30:25.307Z,33.4
2017-07-04T00:31:25.345Z,33.4
2017-07-04T00:32:25.381Z,33.4
2017-07-04T00:33:25.823Z,33.4
2017-07-04T00:34:27.416Z,33.4
2017-07-04T00:35:25.628Z,33.4
2017-07-04T00:36:28.924Z,33.4
2017-07-04T00:37:25.758Z,33.4
2017-07-04T00:38:25.682Z,33.4
2017-07-04T00:39:29.354Z,33.4
2017-07-04T00:40:25.835Z,33.4
2017-07-04T00:41:25.907Z,33.4
2017-07-04T00:42:29.265Z,33.4
2017-07-04T00:43:29.304Z,33.4
2017-07-04T00:44:29.233Z,33.4
2017-07-04T00:45:26.283Z,33.4
2017-07-04T00:46:27.900Z,33.4
2017-07-04T00:47:26.036Z,33.4
2017-07-04T00:48:29.520Z,33.4
2017-07-04T00:49:28.051Z,33.4
2017-07-04T00:50:26.292Z,33.4
2017-07-04T00:51:26.534Z,33.4
2017-07-04T00:52:26.264Z,33.4
2017-07-04T00:53:26.425Z,33.4
2017-07-04T00:54:26.360Z,33.4
2017-07-04T00:55:26.502Z,33.4
2017-07-04T00:56:28.369Z,33.4
2017-07-04T00:57:30.214Z,33.4
2017-07-04T00:58:26.587Z,33.4
2017-07-04T00:59:30.021Z,33.4
2017-07-04T01:00:26.779Z,33.4
2017-07-04T01:01:26.820Z,33.4
2017-07-04T01:02:28.925Z,33.4
2017-07-04T01:03:29.242Z,33.4
2017-07-04T01:04:26.991Z,33.4
2017-07-04T01:05:30.403Z,33.4
2017-07-04T01:06:28.953Z,33.4
2017-07-04T01:07:26.973Z,33.4
2017-07-04T01:08:29.006Z,33.4
2017-07-04T01:09:28.063Z,33.4
2017-07-04T01:10:29.075Z,33.4
2017-07-04T01:11:27.209Z,33.4
2017-07-04T01:12:27.239Z,33.4
2017-07-04T01:13:30.517Z,33.4
2017-07-04T01:14:27.343Z,33.4
2017-07-04T01:15:27.720Z,33.4
2017-07-04T01:16:27.503Z,33.4
2017-07-04T01:17:28.532Z,33.4
2017-07-04T01:18:29.596Z,33.4
2017-07-04T01:19:27.732Z,33.4
2017-07-04T01:20:27.728Z,33.4
2017-07-04T01:21:28.067Z,33.4
2017-07-04T01:22:31.173Z,33.4
2017-07-04T01:23:31.207Z,33.4
2017-07-04T01:24:31.325Z,33.4
2017-07-04T01:25:31.326Z,33.4
2017-07-04T01:26:29.866Z,33.4
2017-07-04T01:27:31.710Z,33.4
2017-07-04T01:28:28.114Z,33.4
2017-07-04T01:29:28.254Z,33.4
2017-07-04T01:30:30.166Z,33.4
2017-07-04T01:31:28.299Z,33.4
2017-07-04T01:32:28.382Z,33.4
2017-07-04T01:33:30.598Z,33.4
2017-07-04T01:34:31.672Z,33.4
2017-07-04T01:35:30.343Z,33.4
2017-07-04T01:36:30.289Z,33.4
2017-07-04T01:37:31.885Z,33.4
2017-07-04T01:38:31.835Z,33.4
2017-07-04T01:39:30.869Z,33.4
2017-07-04T01:40:32.003Z,33.4
2017-07-04T01:41:30.572Z,33.4
2017-07-04T01:42:28.706Z,33.4
2017-07-04T01:43:30.570Z,33.4
2017-07-04T01:44:30.697Z,33.4
2017-07-04T01:45:28.982Z,33.4
2017-07-04T01:46:30.653Z,33.4
2017-07-04T01:47:28.840Z,33.4
2017-07-04T01:48:28.924Z,33.4
2017-07-04T01:49:28.992Z,33.4
2017-07-04T01:50:32.371Z,33.4
2017-07-04T01:51:29.265Z,33.4
2017-07-04T01:52:29.018Z,33.4
2017-07-04T01:53:30.991Z,33.4
2017-07-04T01:54:29.139Z,33.4
2017-07-04T01:55:29.287Z,33.4
2017-07-04T01:56:32.687Z,33.4
2017-07-04T01:57:29.576Z,33.4
2017-07-04T01:58:32.641Z,33.4
2017-07-04T01:59:32.720Z,33.4
2017-07-04T02:00:31.385Z,33.4
2017-07-04T02:01:32.927Z,33.4
2017-07-04T02:02:31.552Z,33.4
2017-07-04T02:03:29.957Z,33.4
2017-07-04T02:04:29.644Z,33.4
2017-07-04T02:05:29.798Z,33.4
2017-07-04T02:06:29.833Z,33.4
2017-07-04T02:07:29.803Z,33.4
2017-07-04T02:08:33.172Z,33.4
2017-07-04T02:09:32.095Z,33.4
2017-07-04T02:10:29.831Z,33.4
2017-07-04T02:11:30.003Z,33.4
2017-07-04T02:12:31.935Z,33.4
2017-07-04T02:13:29.943Z,33.4
2017-07-04T02:14:30.004Z,33.4
2017-07-04T02:15:32.282Z,33.4
2017-07-04T02:16:33.462Z,33.4
2017-07-04T02:17:30.184Z,33.5
2017-07-04T02:18:30.183Z,33.5
2017-07-04T02:19:32.256Z,33.5
2017-07-04T02:20:33.719Z,33.4
2017-07-04T02:21:30.642Z,33.5
2017-07-04T02:22:30.365Z,33.5
2017-07-04T02:23:30.484Z,33.5
2017-07-04T02:24:30.445Z,33.5
2017-07-04T02:25:30.486Z,33.5
2017-07-04T02:26:30.515Z,33.5
2017-07-04T02:27:30.997Z,33.4
2017-07-04T02:28:30.683Z,33.5
2017-07-04T02:29:34.137Z,33.5
2017-07-04T02:30:32.808Z,33.5
2017-07-04T02:31:34.227Z,33.5
2017-07-04T02:32:30.968Z,33.5
2017-07-04T02:33:31.372Z,33.5
2017-07-04T02:34:33.064Z,33.5
2017-07-04T02:35:31.186Z,33.5
2017-07-04T02:36:31.207Z,33.5
2017-07-04T02:37:31.140Z,33.5
2017-07-04T02:38:33.097Z,33.5
2017-07-04T02:39:34.776Z,33.5
2017-07-04T02:40:33.274Z,33.5
2017-07-04T02:41:33.287Z,33.5
2017-07-04T02:42:31.378Z,33.5
2017-07-04T02:43:34.766Z,33.5
2017-07-04T02:44:33.402Z,33.5
2017-07-04T02:45:33.742Z,33.5
2017-07-04T02:46:34.905Z,33.5
2017-07-04T02:47:31.680Z,33.5
2017-07-04T02:48:31.760Z,33.5
2017-07-04T02:49:35.135Z,33.5
2017-07-04T02:50:35.158Z,33.5
2017-07-04T02:51:35.470Z,33.5
2017-07-04T02:52:31.855Z,33.5
2017-07-04T02:53:31.920Z,33.5
2017-07-04T02:54:35.347Z,33.5
2017-07-04T02:55:35.467Z,33.5
2017-07-04T02:56:35.495Z,33.5
2017-07-04T02:57:32.356Z,33.5
2017-07-04T02:58:32.160Z,33.5
2017-07-04T02:59:35.619Z,33.5
2017-07-04T03:00:35.639Z,33.5
2017-07-04T03:01:32.329Z,33.5
2017-07-04T03:02:32.434Z,33.5
2017-07-04T03:03:32.636Z,33.5
2017-07-04T03:04:34.420Z,33.5
2017-07-04T03:05:35.826Z,33.5
2017-07-04T03:06:32.629Z,33.5
2017-07-04T03:07:34.558Z,33.5
2017-07-04T03:08:36.068Z,33.5
2017-07-04T03:09:34.960Z,33.5
2017-07-04T03:10:36.032Z,33.5
2017-07-04T03:11:32.775Z,33.5
2017-07-04T03:12:32.823Z,33.5
2017-07-04T03:13:32.910Z,33.5
2017-07-04T03:14:34.989Z,33.5
2017-07-04T03:15:36.640Z,33.5
2017-07-04T03:16:33.191Z,33.5
2017-07-04T03:17:35.147Z,33.5
2017-07-04T03:18:35.300Z,33.5
2017-07-04T03:19:36.656Z,33.5
2017-07-04T03:20:33.748Z,33.5
2017-07-04T03:21:33.400Z,33.5
2017-07-04T03:22:35.336Z,33.5
2017-07-04T03:23:36.878Z,33.5
2017-07-04T03:24:33.652Z,33.5
2017-07-04T03:25:36.971Z,33.5
2017-07-04T03:26:35.963Z,33.5
2017-07-04T03:27:33.814Z,33.5
2017-07-04T03:28:33.899Z,33.5
2017-07-04T03:29:37.170Z,33.5
2017-07-04T03:30:33.999Z,33.5
2017-07-04T03:31:35.909Z,33.5
2017-07-04T03:32:36.302Z,33.5
2017-07-04T03:33:36.060Z,33.5
2017-07-04T03:34:36.167Z,33.5
2017-07-04T03:35:34.245Z,33.5
2017-07-04T03:36:36.241Z,33.5
2017-07-04T03:37:37.754Z,33.5
2017-07-04T03:38:34.830Z,33.5
2017-07-04T03:39:34.568Z,33.5
2017-07-04T03:40:36.444Z,33.5
2017-07-04T03:41:36.519Z,33.5
2017-07-04T03:42:36.655Z,33.5
2017-07-04T03:43:36.770Z,33.5
2017-07-04T03:44:35.193Z,33.5
2017-07-04T03:45:36.863Z,33.5
2017-07-04T03:46:38.222Z,33.5
2017-07-04T03:47:36.897Z,33.5
2017-07-04T03:48:35.125Z,33.5
2017-07-04T03:49:38.405Z,33.5
2017-07-04T03:50:35.447Z,33.5
2017-07-04T03:51:37.117Z,33.5
2017-07-04T03:52:37.101Z,33.5
2017-07-04T03:53:35.193Z,33.5
2017-07-04T03:54:35.199Z,33.5
2017-07-04T03:55:37.191Z,33.5
2017-07-04T03:56:38.925Z,33.5
2017-07-04T03:57:37.333Z,33.5
2017-07-04T03:58:35.519Z,33.5
2017-07-04T03:59:38.855Z,33.5
2017-07-04T04:00:37.504Z,33.5
2017-07-04T04:01:35.545Z,33.5
2017-07-04T04:02:35.893Z,33.5
2017-07-04T04:03:35.705Z,33.5
2017-07-04T04:04:35.705Z,33.5
2017-07-04T04:05:37.777Z,33.5
2017-07-04T04:06:37.778Z,33.5
2017-07-04T04:07:35.872Z,33.5
2017-07-04T04:08:36.267Z,33.5
2017-07-04T04:09:37.891Z,33.5
2017-07-04T04:10:35.991Z,33.5
2017-07-04T04:11:38.029Z,33.5
2017-07-04T04:12:39.450Z,33.5
2017-07-04T04:13:36.231Z,33.5
2017-07-04T04:14:36.446Z,33.5
2017-07-04T04:15:39.563Z,33.5
2017-07-04T04:16:38.222Z,33.5
2017-07-04T04:17:36.340Z,33.6
2017-07-04T04:18:38.255Z,33.8
2017-07-04T04:19:39.696Z,34
2017-07-04T04:20:36.754Z,34.1
2017-07-04T04:21:36.649Z,34.2
2017-07-04T04:22:36.706Z,34.4
2017-07-04T04:23:38.700Z,34.5
2017-07-04T04:24:36.753Z,34.7
2017-07-04T04:25:36.742Z,34.9
2017-07-04T04:26:37.233Z,35.1
2017-07-04T04:27:36.931Z,35.2
2017-07-04T04:28:37.020Z,35.3
2017-07-04T04:29:37.096Z,35.4
2017-07-04T04:30:39.049Z,35.5
2017-07-04T04:31:40.468Z,35.5
2017-07-04T04:32:39.425Z,35.6
2017-07-04T04:33:39.149Z,35.6
2017-07-04T04:34:39.311Z,35.7
2017-07-04T04:35:37.390Z,35.7
2017-07-04T04:36:39.295Z,35.7
2017-07-04T04:37:37.423Z,35.7
2017-07-04T04:38:37.953Z,35.7
2017-07-04T04:39:37.631Z,35.8
2017-07-04T04:40:37.712Z,35.8
2017-07-04T04:41:41.168Z,35.8
2017-07-04T04:42:41.259Z,35.7
2017-07-04T04:43:37.955Z,35.8
2017-07-04T04:44:38.356Z,36
2017-07-04T04:45:41.485Z,36.2
2017-07-04T04:46:41.563Z,36.4
2017-07-04T04:47:38.217Z,36.7
2017-07-04T04:48:38.331Z,36.9
2017-07-04T04:51:30.506Z,37.5
2017-07-04T04:55:09.454Z,38.5
2017-07-04T04:56:06.299Z,38.8
2017-07-04T04:57:09.302Z,39.1
2017-07-04T04:58:05.666Z,39.4
2017-07-04T04:59:05.748Z,39.6
2017-07-04T05:00:09.014Z,39.7
2017-07-04T05:01:05.820Z,39.7
2017-07-04T05:02:07.816Z,39.8
2017-07-04T05:03:08.045Z,39.7
2017-07-04T05:04:07.929Z,39.6
2017-07-04T05:05:06.011Z,39.6
2017-07-04T05:06:06.038Z,39.5
2017-07-04T05:07:09.495Z,39.4
2017-07-04T05:08:09.521Z,39.3
2017-07-04T05:09:06.723Z,39.2
2017-07-04T05:10:06.309Z,39.1
2017-07-04T05:11:08.348Z,39
2017-07-04T05:12:06.500Z,39
2017-07-04T05:13:06.499Z,38.9
2017-07-04T05:14:09.926Z,38.8
2017-07-04T05:15:06.884Z,38.8
2017-07-04T05:16:08.680Z,38.7
2017-07-04T05:17:06.699Z,38.6
2017-07-04T05:18:08.795Z,38.5
2017-07-04T05:19:10.307Z,38.5
2017-07-04T05:20:07.087Z,38.4
2017-07-04T05:21:09.270Z,38.4
2017-07-04T05:22:07.146Z,38.3
2017-07-04T05:23:07.120Z,38.2
2017-07-04T05:24:10.510Z,38.2
2017-07-04T05:25:09.119Z,38.1
2017-07-04T05:26:07.186Z,38
2017-07-04T05:27:07.514Z,37.9
2017-07-04T05:28:07.271Z,37.9
2017-07-04T05:29:10.636Z,37.9
2017-07-04T05:30:07.421Z,38
2017-07-04T05:31:07.369Z,38.1
2017-07-04T05:32:10.826Z,38.3
2017-07-04T05:33:11.080Z,38.4
2017-07-04T05:34:09.428Z,38.6
2017-07-04T05:35:09.591Z,38.7
2017-07-04T05:36:09.626Z,38.9
2017-07-04T05:37:11.002Z,39
2017-07-04T05:38:07.878Z,39.1
2017-07-04T05:39:10.047Z,39.2
2017-07-04T05:40:09.691Z,39.3
2017-07-04T05:41:09.759Z,39.4
2017-07-04T05:42:09.901Z,39.4
2017-07-04T05:43:11.248Z,39.5
2017-07-04T05:44:09.798Z,39.5
2017-07-04T05:45:11.598Z,39.5
2017-07-04T05:46:11.372Z,39.5
2017-07-04T05:47:08.050Z,39.6
2017-07-04T05:48:08.216Z,39.6
2017-07-04T05:49:08.192Z,39.6
2017-07-04T05:50:11.670Z,39.6
2017-07-04T05:51:11.291Z,39.7
2017-07-04T05:52:10.243Z,39.7
2017-07-04T05:53:11.803Z,39.8
2017-07-04T05:54:11.891Z,39.8
2017-07-04T05:55:08.595Z,39.8
2017-07-04T05:56:08.504Z,39.8
2017-07-04T05:57:08.883Z,39.7
2017-07-04T05:58:08.621Z,39.7
2017-07-04T05:59:08.631Z,39.8
2017-07-04T06:00:08.698Z,39.8
2017-07-04T06:01:08.683Z,39.9
2017-07-04T06:02:10.634Z,39.8
2017-07-04T06:03:11.017Z,39.8
2017-07-04T06:04:10.733Z,39.8
2017-07-04T06:05:10.791Z,39.9
2017-07-04T06:06:12.266Z,40
2017-07-04T06:07:08.986Z,40
2017-07-04T06:08:09.007Z,40
2017-07-04T07:09:18.557Z,40.6
2017-07-04T07:10:16.046Z,40.6
2017-07-04T07:11:12.349Z,40.5
2017-07-04T07:12:12.464Z,40.5
2017-07-04T07:13:12.675Z,40.5
2017-07-04T07:18:12.722Z,40.4
2017-07-04T07:19:12.954Z,40.4
2017-07-04T07:20:14.637Z,40.3
2017-07-04T07:21:16.144Z,40.3
2017-07-04T07:25:15.517Z,40.4
2017-07-04T07:30:16.673Z,40.5
2017-07-04T07:31:15.845Z,40.5
2017-07-04T07:32:17.326Z,40.4
2017-07-04T07:33:16.010Z,40.4
2017-07-04T07:34:15.451Z,40.3
2017-07-04T07:35:13.777Z,40.3
2017-07-04T07:36:13.621Z,40.2
2017-07-04T07:48:56.755Z,40
2017-07-04T07:49:55.334Z,39.9
2017-07-04T07:50:56.252Z,39.9
2017-07-04T07:51:55.594Z,39.9
2017-07-04T07:52:57.135Z,39.9
2017-07-04T07:53:53.611Z,39.9
2017-07-04T07:54:56.776Z,39.8
2017-07-04T07:55:56.564Z,39.7
2017-07-04T07:56:57.150Z,39.6
2017-07-04T07:57:55.176Z,39.6
2017-07-04T07:58:56.575Z,39.6
2017-07-04T07:59:55.294Z,39.6
2017-07-04T08:00:55.599Z,39.6
2017-07-04T08:01:54.162Z,39.4
2017-07-04T08:02:55.487Z,39.3
2017-07-04T08:03:56.979Z,39.3
2017-07-04T08:05:00.591Z,39.1
2017-07-04T08:05:55.631Z,39.1
2017-07-04T08:06:57.577Z,39
2017-07-04T08:07:58.275Z,39
2017-07-04T08:08:56.403Z,38.9
2017-07-04T08:09:56.392Z,38.8
2017-07-04T08:10:58.182Z,38.8
2017-07-04T08:12:00.509Z,38.7
2017-07-04T08:12:57.473Z,38.7
2017-07-04T08:13:56.755Z,38.7
2017-07-04T08:14:57.950Z,38.7
2017-07-04T08:15:59.260Z,38.8
2017-07-04T08:16:58.985Z,38.8
2017-07-04T09:11:02.053Z,36.4
2017-07-04T09:11:57.597Z,36.2
2017-07-04T09:12:58.274Z,36.1
2017-07-04T09:13:58.178Z,36
2017-07-04T09:14:58.477Z,36
2017-07-04T09:15:59.756Z,36
2017-07-04T09:17:01.226Z,35.9
2017-07-04T09:17:59.344Z,35.9
2017-07-04T09:18:58.675Z,35.8
2017-07-04T09:20:03.115Z,35.8
2017-07-04T09:20:58.674Z,35.7
2017-07-04T09:22:00.075Z,35.9
2017-07-04T09:22:58.237Z,36
2017-07-04T09:23:58.836Z,36.1
2017-07-04T09:25:02.937Z,36.2
2017-07-04T09:25:58.753Z,36.2
2017-07-04T09:27:00.874Z,36.2
2017-07-04T09:27:59.727Z,36.3
2017-07-04T09:29:01.794Z,36.4
2017-07-04T09:30:01.850Z,36.5
2017-07-04T09:31:01.468Z,36.7
2017-07-04T09:31:59.730Z,36.8
2017-07-04T09:33:01.932Z,36.8
2017-07-04T09:34:02.012Z,36.8
2017-07-04T09:35:08.743Z,36.8
2017-07-04T09:36:05.347Z,36.7
2017-07-04T09:36:59.733Z,36.7
2017-07-04T09:37:59.700Z,36.7
2017-07-04T09:39:01.536Z,36.8
2017-07-04T09:39:59.541Z,36.9
2017-07-04T09:40:59.035Z,36.8
2017-07-04T09:41:59.187Z,36.9
2017-07-04T09:43:03.178Z,36.9
2017-07-04T09:44:02.169Z,37
2017-07-04T09:44:59.320Z,37
2017-07-04T09:46:01.256Z,37
2017-07-04T09:47:05.161Z,37
2017-07-04T09:48:00.871Z,37
2017-07-04T09:49:00.206Z,36.9
2017-07-04T09:50:01.494Z,36.9
2017-07-04T09:51:03.502Z,36.9
2017-07-04T09:52:00.403Z,36.9
2017-07-04T09:53:00.761Z,36.9
2017-07-04T09:54:02.822Z,36.9
2017-07-04T09:54:59.858Z,36.9
2017-07-04T09:56:01.630Z,36.9
2017-07-04T09:57:02.443Z,36.9
2017-07-04T09:58:02.407Z,36.9
2017-07-04T09:59:03.321Z,36.9
2017-07-04T10:00:04.573Z,36.9
2017-07-04T10:01:00.804Z,36.8
2017-07-04T10:02:00.108Z,36.8
2017-07-04T10:03:05.587Z,36.8
2017-07-04T10:04:03.238Z,36.8
2017-07-04T10:05:01.510Z,36.8
2017-07-04T10:06:03.464Z,36.8
2017-07-04T10:07:00.322Z,36.8
2017-07-04T10:08:02.439Z,36.8
2017-07-04T10:09:02.854Z,36.8
2017-07-04T10:10:00.425Z,36.8
2017-07-04T10:11:04.514Z,36.7
2017-07-04T10:12:02.665Z,36.7
2017-07-04T10:13:02.950Z,36.7
2017-07-04T10:14:00.545Z,36.8
2017-07-04T10:15:04.354Z,36.7
2017-07-04T10:16:02.220Z,36.7
2017-07-04T10:17:04.365Z,36.6
2017-07-04T10:18:03.892Z,36.6
2017-07-04T10:19:05.576Z,36.6
2017-07-04T10:20:04.576Z,36.6
2017-07-04T10:21:04.404Z,36.6
2017-07-04T10:22:02.920Z,36.5
2017-07-04T10:23:01.083Z,36.4
2017-07-04T10:24:05.199Z,36.3
2017-07-04T10:25:03.827Z,36.1
2017-07-04T10:26:03.301Z,36
2017-07-04T10:27:04.197Z,36
2017-07-04T10:28:04.105Z,36.1
2017-07-04T10:29:03.931Z,36.2
2017-07-04T10:30:07.342Z,36.2
2017-07-04T10:31:06.404Z,36.2
2017-07-04T10:32:04.544Z,36.2
2017-07-04T10:33:03.754Z,36.2
2017-07-04T10:34:01.912Z,36.2
2017-07-04T10:35:05.063Z,36.1
2017-07-04T10:36:04.680Z,36.1
2017-07-04T10:37:06.118Z,36.1
2017-07-04T10:38:02.545Z,36
2017-07-04T10:39:04.281Z,36
2017-07-04T10:40:02.938Z,36.1
2017-07-04T10:41:02.123Z,36
2017-07-04T10:42:05.423Z,36.1
2017-07-04T10:43:09.746Z,36.1
2017-07-04T10:44:08.725Z,36.2
2017-07-04T10:45:02.995Z,36.2
2017-07-04T10:46:03.881Z,36.2
2017-07-04T10:47:09.691Z,36.2
2017-07-04T10:48:05.918Z,36.2
2017-07-04T10:49:04.678Z,36.2
2017-07-04T10:50:05.701Z,36.2
2017-07-04T10:51:08.617Z,36.2
2017-07-04T10:52:04.821Z,36.2
2017-07-04T10:53:09.209Z,36.2
2017-07-04T10:54:10.587Z,36.3
2017-07-04T10:55:09.929Z,36.3
2017-07-04T10:56:02.846Z,36.3
2017-07-04T10:57:03.034Z,36.3
2017-07-04T10:58:05.331Z,36.3
2017-07-04T10:59:05.849Z,36.3
2017-07-04T11:00:08.994Z,36.3
2017-07-04T11:01:10.895Z,36.3
2017-07-04T11:02:07.086Z,36.3
2017-07-04T11:03:07.644Z,36.3
2017-07-04T11:04:08.574Z,36.3
2017-07-04T11:05:05.627Z,36.4
2017-07-04T11:06:10.725Z,36.4
2017-07-04T11:07:07.622Z,36.3
2017-07-04T11:08:04.227Z,36.2
2017-07-04T11:09:08.271Z,36.2
2017-07-04T11:10:07.319Z,36.1
2017-07-04T11:11:09.432Z,36
2017-07-04T11:12:05.963Z,36
2017-07-04T11:13:04.519Z,35.9
2017-07-04T11:14:05.399Z,35.9
2017-07-04T11:15:09.808Z,35.9
2017-07-04T11:16:05.877Z,35.8
2017-07-04T11:17:09.056Z,35.7
2017-07-04T11:18:09.518Z,35.6
2017-07-04T11:19:15.568Z,35.7
2017-07-04T11:20:05.017Z,35.8
2017-07-04T11:21:04.344Z,35.8
2017-07-04T11:22:06.278Z,35.8
2017-07-04T11:23:05.029Z,35.8
2017-07-04T11:24:08.429Z,35.8
2017-07-04T11:25:05.282Z,35.9
2017-07-04T11:26:05.799Z,35.9
2017-07-04T11:27:07.484Z,35.9
2017-07-04T11:28:05.299Z,35.9
2017-07-04T11:29:05.091Z,36
2017-07-04T11:30:04.550Z,36
2017-07-04T11:31:08.488Z,36.1
2017-07-04T11:32:05.411Z,36
2017-07-04T11:33:04.683Z,36
2017-07-04T11:34:08.743Z,36
2017-07-04T11:35:06.748Z,36
2017-07-04T11:36:04.870Z,35.9
2017-07-04T11:37:04.951Z,35.8
2017-07-04T11:38:09.381Z,35.8
2017-07-04T11:39:05.728Z,35.7
2017-07-04T11:40:06.384Z,35.7
2017-07-04T11:41:10.827Z,35.7
2017-07-04T11:42:05.959Z,35.6
2017-07-04T11:43:05.927Z,35.6
2017-07-04T11:44:06.539Z,35.4
2017-07-04T11:45:08.661Z,35.3
2017-07-04T11:46:09.862Z,35.4
2017-07-04T11:47:09.134Z,35.4
2017-07-04T11:48:07.271Z,35.5
2017-07-04T11:49:05.778Z,35.5
2017-07-04T11:50:09.465Z,35.7
2017-07-04T11:51:11.645Z,35.8
2017-07-04T11:52:05.643Z,35.9
2017-07-04T11:53:07.600Z,36
2017-07-04T11:54:07.224Z,36.3
2017-07-04T11:55:09.912Z,36.5
2017-07-04T11:56:10.554Z,36.6
2017-07-04T11:57:08.584Z,36.7
2017-07-04T11:58:06.029Z,36.9
2017-07-04T11:59:08.287Z,37
2017-07-04T12:00:18.915Z,37
2017-07-04T12:01:12.190Z,37.1
2017-07-04T12:02:11.902Z,37.2
2017-07-04T12:03:08.370Z,37.2
2017-07-04T12:04:07.814Z,37.3
2017-07-04T12:05:15.587Z,37.2
2017-07-04T12:06:11.518Z,37.1
2017-07-04T12:07:07.901Z,37
2017-07-04T12:08:09.171Z,36.9
2017-07-04T12:09:08.900Z,36.8
2017-07-04T12:10:06.822Z,36.7
2017-07-04T12:11:07.976Z,36.6
2017-07-04T12:12:07.435Z,36.5
2017-07-04T12:13:16.380Z,36.4
2017-07-04T12:14:11.226Z,36.3
2017-07-04T12:15:12.209Z,36.2
2017-07-04T12:16:08.964Z,36.1
2017-07-04T12:17:10.324Z,36
2017-07-04T12:18:07.138Z,35.9
2017-07-04T12:19:16.236Z,35.9
2017-07-04T12:20:17.680Z,35.8
2017-07-04T12:21:07.891Z,35.8
2017-07-04T12:22:07.532Z,35.8
2017-07-04T12:23:10.938Z,35.8
2017-07-04T12:24:08.039Z,35.8
2017-07-04T12:25:14.614Z,35.8
2017-07-04T12:26:11.454Z,35.8
2017-07-04T12:27:12.848Z,35.7
2017-07-04T12:28:13.858Z,35.6
2017-07-04T12:29:12.112Z,35.5
2017-07-04T12:30:10.974Z,35.4
2017-07-04T12:31:17.566Z,35.4
2017-07-04T12:32:11.143Z,35.3
2017-07-04T12:33:10.075Z,35.3
2017-07-04T12:34:13.712Z,35.3
2017-07-04T12:35:08.511Z,35.2
2017-07-04T12:36:09.704Z,35.2
2017-07-04T12:37:11.928Z,35.2
2017-07-04T12:38:10.038Z,35.3
2017-07-04T12:39:12.703Z,35.3
2017-07-04T12:40:14.711Z,35.4
2017-07-04T12:41:11.549Z,35.5
2017-07-04T12:42:10.774Z,35.5
2017-07-04T12:43:11.734Z,35.6
2017-07-04T12:44:12.226Z,35.7
2017-07-04T12:45:13.217Z,35.7
2017-07-04T12:46:10.886Z,35.7
2017-07-04T12:47:09.392Z,35.7
2017-07-04T12:48:11.474Z,35.7
2017-07-04T12:49:10.590Z,35.6
2017-07-04T12:50:12.308Z,35.6
2017-07-04T12:51:12.499Z,35.4
2017-07-04T12:52:09.522Z,35.3
2017-07-04T12:53:14.031Z,35.2
2017-07-04T12:54:11.060Z,35.2
2017-07-04T12:55:09.836Z,35.1
2017-07-04T12:56:13.816Z,34.9
2017-07-04T12:57:16.199Z,34.8
2017-07-04T12:58:12.616Z,34.7
2017-07-04T12:59:13.049Z,34.6
2017-07-04T13:00:13.892Z,34.5
2017-07-04T13:01:09.570Z,34.5
2017-07-04T13:02:12.982Z,34.4
2017-07-04T13:03:14.341Z,34.3
2017-07-04T13:04:18.499Z,34.3
2017-07-04T13:05:17.586Z,34.3
2017-07-04T13:06:15.366Z,34.3
2017-07-04T13:07:15.644Z,34.4
2017-07-04T13:08:11.707Z,34.4
2017-07-04T13:09:11.947Z,34.3
2017-07-04T13:10:14.212Z,34.4
2017-07-04T13:11:12.182Z,34.4
2017-07-04T13:12:15.297Z,34.5
2017-07-04T13:13:18.663Z,34.5
2017-07-04T13:14:18.031Z,34.5
2017-07-04T13:15:17.019Z,34.5
2017-07-04T13:16:16.688Z,34.5
2017-07-04T13:17:25.012Z,34.5
2017-07-04T13:18:17.244Z,34.4
2017-07-04T13:19:21.970Z,34.4
2017-07-04T13:20:23.901Z,34.5
2017-07-04T13:21:19.834Z,34.4
2017-07-04T13:22:21.008Z,34.4
2017-07-04T13:23:19.098Z,34.4
2017-07-04T13:24:21.834Z,34.5
2017-07-04T13:25:27.305Z,34.6
2017-07-04T13:26:14.656Z,34.7
2017-07-04T13:27:22.522Z,34.7
2017-07-04T13:28:16.906Z,34.8
2017-07-04T13:29:28.151Z,34.8
2017-07-04T13:30:36.123Z,34.8
2017-07-04T13:31:27.318Z,34.8
2017-07-04T13:32:26.529Z,34.9
2017-07-04T13:33:16.186Z,34.9
2017-07-04T13:34:18.056Z,34.7
2017-07-04T13:35:16.848Z,34.7
2017-07-04T13:36:19.485Z,34.5
2017-07-04T13:37:15.610Z,34.4
2017-07-04T13:38:19.701Z,34.4
2017-07-04T13:39:16.215Z,34.3
2017-07-04T13:40:16.250Z,34.2
2017-07-04T13:41:14.572Z,34.2
2017-07-04T13:42:17.913Z,34.2
2017-07-04T13:43:20.555Z,34.2
2017-07-04T13:44:19.433Z,34.2
2017-07-04T13:45:18.685Z,34.2
2017-07-04T13:46:20.092Z,34.2
2017-07-04T13:47:22.477Z,34.2
2017-07-04T13:48:17.503Z,34.2
2017-07-04T13:49:21.869Z,34.2
2017-07-04T13:50:23.922Z,34.2
2017-07-04T13:51:18.602Z,34.2
2017-07-04T13:52:18.317Z,34.1
2017-07-04T13:53:22.123Z,34.1
2017-07-04T13:54:19.546Z,34.1
2017-07-04T13:55:16.912Z,34.1
2017-07-04T13:56:22.790Z,34.1
2017-07-04T13:57:16.683Z,34
2017-07-04T13:58:16.712Z,34
2017-07-04T13:59:14.198Z,34
2017-07-04T14:00:17.296Z,34
2017-07-04T14:01:17.209Z,33.9
2017-07-04T14:02:16.439Z,33.9
2017-07-04T14:03:17.499Z,33.9
2017-07-04T14:04:17.228Z,33.9
2017-07-04T14:05:16.168Z,33.9
2017-07-04T14:06:13.980Z,33.9
2017-07-04T14:07:13.981Z,34
2017-07-04T14:08:15.993Z,34.1
2017-07-04T14:09:17.233Z,34.2
2017-07-04T14:10:16.088Z,34.2
2017-07-04T14:11:16.939Z,34.2
2017-07-04T14:12:19.382Z,34.3
2017-07-04T14:13:15.020Z,34.3
2017-07-04T14:14:16.361Z,34.3
2017-07-04T14:15:14.512Z,34.2
2017-07-04T14:16:14.366Z,34.2
2017-07-04T14:17:17.139Z,34.2
2017-07-04T14:18:18.592Z,34.2
2017-07-04T14:19:14.560Z,34.2
2017-07-04T14:20:16.541Z,34.2
2017-07-04T14:21:19.953Z,34.1
2017-07-04T14:22:17.925Z,34.1
2017-07-04T14:23:15.661Z,34.1
2017-07-04T14:24:17.464Z,34.1
2017-07-04T14:25:18.199Z,34.1
2017-07-04T14:26:15.637Z,34
2017-07-04T14:27:18.429Z,34
2017-07-04T14:28:18.893Z,34
2017-07-04T14:29:16.728Z,33.9
2017-07-04T14:30:15.363Z,33.9
2017-07-04T14:31:15.840Z,33.8
2017-07-04T14:32:17.267Z,33.8
2017-07-04T14:33:17.277Z,33.9
2017-07-04T14:34:17.970Z,33.9
2017-07-04T14:35:17.036Z,33.9
2017-07-04T14:36:20.147Z,33.9
2017-07-04T14:37:15.808Z,33.9
2017-07-04T14:38:16.439Z,33.8
2017-07-04T14:39:20.861Z,33.8
2017-07-04T14:40:19.827Z,33.8
2017-07-04T14:41:16.360Z,33.7
2017-07-04T14:42:18.001Z,33.7
2017-07-04T14:43:19.641Z,33.8
2017-07-04T14:44:16.945Z,33.8
2017-07-04T14:45:19.445Z,33.8
2017-07-04T14:46:18.019Z,33.8
2017-07-04T14:47:18.061Z,33.6
2017-07-04T14:48:16.445Z,33.5
2017-07-04T14:49:20.559Z,33.4
2017-07-04T14:50:17.324Z,33.4
2017-07-04T14:51:17.299Z,33.4
2017-07-04T14:52:16.725Z,33.4
2017-07-04T14:53:19.094Z,33.4
2017-07-04T14:54:16.859Z,33.3
2017-07-04T14:55:18.882Z,33.5
2017-07-04T14:56:20.897Z,33.5
2017-07-04T14:57:17.009Z,33.5
2017-07-04T14:58:21.037Z,33.5
2017-07-04T14:59:18.139Z,33.6
2017-07-04T15:00:17.226Z,33.5
2017-07-04T15:01:17.327Z,33.5
2017-07-04T15:02:17.186Z,33.5
2017-07-04T15:03:18.047Z,33.5
2017-07-04T15:04:17.918Z,33.4
2017-07-04T15:05:18.390Z,33.4
2017-07-04T15:06:17.460Z,33.4
2017-07-04T15:07:19.468Z,33.3
2017-07-04T15:08:20.166Z,33.1
2017-07-04T15:09:17.795Z,33.2
2017-07-04T15:10:19.679Z,33.4
2017-07-04T15:11:21.378Z,33.3
2017-07-04T15:12:18.471Z,33.3
2017-07-04T15:13:19.793Z,33.2
2017-07-04T15:14:17.966Z,33.2
2017-07-04T15:15:21.397Z,33.1
2017-07-04T15:16:20.009Z,33.1
2017-07-04T15:17:21.739Z,33
2017-07-04T15:18:20.759Z,33
2017-07-04T15:19:20.084Z,33
2017-07-04T15:20:22.628Z,32.9
2017-07-04T15:21:21.693Z,32.9
2017-07-04T15:22:18.278Z,32.9
2017-07-04T15:23:20.491Z,32.9
2017-07-04T15:24:18.440Z,32.8
2017-07-04T15:25:18.373Z,32.8
2017-07-04T15:26:18.353Z,32.8
2017-07-04T15:27:18.460Z,32.8
2017-07-04T15:28:18.334Z,32.8
2017-07-04T15:29:21.980Z,32.8
2017-07-04T15:30:21.795Z,32.8
2017-07-04T15:31:18.387Z,32.8
2017-07-04T15:32:19.280Z,32.8
2017-07-04T15:33:18.510Z,32.7
2017-07-04T15:34:20.541Z,32.7
2017-07-04T15:35:21.318Z,32.7
2017-07-04T15:36:22.016Z,32.7
2017-07-04T15:37:22.066Z,32.6
2017-07-04T15:38:20.622Z,32.7
2017-07-04T15:39:18.795Z,32.7
2017-07-04T15:40:19.052Z,32.7
2017-07-04T15:41:19.240Z,32.7
2017-07-04T15:42:18.904Z,32.8